Time;durP1;ratioP1;P1;durP2;ratioP2;P2;SDS_P1;SDS_P2;PMS_P1;PMS_P2;Temp;Humidity;BMP_temperature;BMP_pressure;BME280_temperature;BME280_humidity;BME280_pressure;Samples;Min_cycle;Max_cycle;Signal;HPM_P1;HPM_P2
2021/03/11 00:08:56;1521224.00;5.07;2683.12;0.00;0.00;0.62;;;;;14.40;1.00;;;;;;2279532;61;1259;-90
2021/03/11 00:13:55;930437.00;3.10;1609.64;0.00;0.00;0.62;;;;;14.30;1.00;;;;;;2271213;61;1332;-89
2021/03/11 00:21:23;1171804.00;3.91;2039.32;0.00;0.00;0.62;;;;;14.30;1.00;;;;;;2278996;61;1330;-90
2021/03/11 00:28:52;1642096.00;5.47;2913.46;0.00;0.00;0.62;;;;;14.10;1.00;;;;;;2275423;61;1196;-89
2021/03/11 00:36:19;1165454.00;3.88;2027.88;0.00;0.00;0.62;;;;;13.60;1.00;;;;;;2279647;61;1298;-88
2021/03/11 00:38:53;204844.00;0.68;354.26;13198.00;0.04;23.49;;;;;13.60;1.00;;;;;;2269075;61;1927;-88
2021/03/11 00:41:25;275600.00;0.92;475.97;0.00;0.00;0.62;;;;;13.70;1.00;;;;;;2257012;61;1373;-88
2021/03/11 00:46:23;1729451.00;5.76;3082.79;0.00;0.00;0.62;;;;;13.70;1.00;;;;;;2270924;61;1345;-89
2021/03/11 00:48:51;487273.00;1.62;839.92;88212.00;0.29;153.22;;;;;13.90;1.00;;;;;;2269487;61;870;-89
2021/03/11 00:53:50;1408799.00;4.70;2472.65;43200.00;0.14;75.42;;;;;13.60;1.00;;;;;;2271074;61;1332;-90
2021/03/11 00:58:52;1600281.00;5.33;2833.28;50551.00;0.17;88.14;;;;;13.40;1.00;;;;;;2279202;61;1879;-87
2021/03/11 01:11:12;1444022.00;4.81;2538.22;0.00;0.00;0.62;;;;;14.70;1.00;;;;;;2278232;61;1459;-88
2021/03/11 01:13:39;403624.00;1.35;696.04;13508.00;0.05;24.03;;;;;14.70;1.00;;;;;;2276738;61;961;-90
2021/03/11 01:23:29;986841.00;3.29;1709.18;0.00;0.00;0.62;;;;;14.80;1.00;;;;;;2267348;61;1320;-90
2021/03/11 01:58:32;1989982.00;6.63;3603.77;169267.00;0.56;293.00;;;;;14.30;1.00;;;;;;2282154;61;1982;-90
2021/03/11 02:03:31;2051867.00;6.84;3731.37;36068.00;0.12;63.08;;;;;14.20;1.00;;;;;;2282540;61;1338;-89
2021/03/11 02:10:59;1280289.00;4.27;2236.08;0.00;0.00;0.62;;;;;14.60;1.00;;;;;;2282525;61;1302;-89
2021/03/11 02:13:42;418916.00;1.40;722.33;0.00;0.00;0.62;;;;;14.80;1.00;;;;;;2272062;61;1462;-90
2021/03/11 02:21:07;1155166.00;3.85;2009.37;0.00;0.00;0.62;;;;;14.70;1.00;;;;;;2283012;61;1200;-89
2021/03/11 02:24:12;299460.00;1.00;516.99;0.00;0.00;0.62;;;;;14.60;1.00;;;;;;2267571;61;979;-89
2021/03/11 02:27:15;253894.00;0.85;438.65;0.00;0.00;0.62;;;;;14.50;1.00;;;;;;2267862;61;998;-91
2021/03/11 02:29:46;49022.00;0.16;85.49;0.00;0.00;0.62;;;;;14.10;1.00;;;;;;2255681;61;1006;-89
2021/03/11 02:37:35;1371667.00;4.57;2403.88;0.00;0.00;0.62;;;;;14.00;1.00;;;;;;2282467;60;1973;-90
2021/03/11 02:42:40;1637849.00;5.46;2905.29;82110.00;0.27;142.68;;;;;14.10;1.00;;;;;;2287090;61;1290;-89
2021/03/11 02:47:46;1662141.00;5.54;2952.10;50308.00;0.17;87.72;;;;;14.20;1.00;;;;;;2278418;61;1390;-91
2021/03/11 02:50:14;499155.00;1.66;860.37;0.00;0.00;0.62;;;;;14.10;1.00;;;;;;2267873;61;1005;-90
2021/03/11 02:52:42;297423.00;0.99;513.49;0.00;0.00;0.62;;;;;14.10;1.00;;;;;;2259828;61;1377;-89
2021/03/11 02:55:09;205378.00;0.68;355.18;70562.00;0.24;122.73;;;;;14.20;1.00;;;;;;2259865;61;1013;-89
2021/03/11 03:02:34;1600657.00;5.34;2833.99;86876.00;0.29;150.91;;;;;14.50;1.00;;;;;;2278247;61;1455;-90
2021/03/11 03:05:02;232148.00;0.77;401.24;30980.00;0.10;54.28;;;;;14.20;1.00;;;;;;2267916;61;1025;-90
2021/03/11 03:22:28;1333592.00;4.45;2333.72;92001.00;0.31;159.76;;;;;13.50;1.00;;;;;;2275182;61;1367;-89
2021/03/11 03:24:55;346924.00;1.16;598.57;88065.00;0.29;152.97;;;;;13.40;1.00;;;;;;2273128;61;405;-87
2021/03/11 03:27:22;543788.00;1.81;937.25;0.00;0.00;0.62;;;;;13.10;1.00;;;;;;2272296;61;1643;-88
2021/03/11 03:29:49;445018.00;1.48;767.21;40203.00;0.13;70.24;;;;;13.00;1.00;;;;;;2272261;61;1734;-89
2021/03/11 03:34:43;1176026.00;3.92;2046.93;46397.00;0.15;80.95;;;;;12.50;1.00;;;;;;2270144;61;1399;-91
2021/03/11 03:37:10;117166384.00;390.55;65153148.00;116887880.00;389.63;64689236.00;;;;;12.20;1.00;;;;;;2268440;61;1005;-89
2021/03/11 03:39:38;378267.00;1.26;652.45;114837.00;0.38;199.18;;;;;12.10;1.00;;;;;;2264198;61;1928;-89
2021/03/11 03:42:08;556602.00;1.86;959.34;129072.00;0.43;223.73;;;;;12.30;1.00;;;;;;2255758;61;1426;-91
2021/03/11 03:44:38;496759.00;1.66;856.24;83794.00;0.28;145.59;;;;;12.50;1.00;;;;;;2247824;61;960;-88
2021/03/11 03:47:06;584146.00;1.95;1006.85;54895.00;0.18;95.65;;;;;12.60;1.00;;;;;;2247873;61;1029;-89
2021/03/11 03:52:03;1258742.00;4.20;2196.79;0.00;0.00;0.62;;;;;12.40;1.00;;;;;;2266988;61;1933;-89
2021/03/11 03:57:01;1662212.00;5.54;2952.24;78490.00;0.26;136.43;;;;;12.30;1.00;;;;;;2278853;61;1309;-89
2021/03/11 04:01:59;1396889.00;4.66;2450.56;140697.00;0.47;243.77;;;;;11.50;1.00;;;;;;2277021;61;1327;-89
2021/03/11 04:04:28;463494.00;1.54;799.00;168659.00;0.56;291.96;;;;;11.50;1.00;;;;;;2272508;61;1037;-90
2021/03/11 04:06:57;452912.00;1.51;780.79;166817.00;0.56;288.78;;;;;11.50;1.00;;;;;;2272496;61;1048;-89
2021/03/11 04:09:27;512878.00;1.71;884.00;97076.00;0.32;168.52;;;;;11.60;1.00;;;;;;2265888;61;1028;-88
2021/03/11 04:14:28;1341288.00;4.47;2347.87;76456.00;0.25;132.92;;;;;11.50;1.00;;;;;;2278544;61;1322;-89
2021/03/11 04:19:26;1867557.00;6.23;3355.83;83529.00;0.28;145.13;;;;;11.80;1.00;;;;;;2283172;61;1945;-88
2021/03/11 04:24:22;1689394.00;5.63;3004.83;78113.00;0.26;135.78;;;;;11.80;1.00;;;;;;2278447;60;1385;-87
2021/03/11 04:34:23;1214387.00;4.05;2116.25;73304.00;0.24;127.47;;;;;12.00;1.00;;;;;;2283511;61;1314;-88
2021/03/11 04:43:01;1331179.00;4.44;2329.28;0.00;0.00;0.62;;;;;11.80;1.00;;;;;;2282628;61;1391;-89
2021/03/11 04:48:02;1118374.00;3.73;1943.31;0.00;0.00;0.62;;;;;11.60;1.00;;;;;;2282547;61;1252;-90
2021/03/11 04:50:36;296838.00;0.99;512.48;12005.00;0.04;21.42;;;;;11.70;1.00;;;;;;2280913;61;910;-88
2021/03/11 04:55:33;1302618.00;4.34;2276.90;24412.00;0.08;42.91;;;;;11.30;1.00;;;;;;2283225;61;1302;-88
2021/03/11 05:03:14;119273200.00;397.58;68734656.00;5021.00;0.02;9.32;;;;;11.30;1.00;;;;;;2282960;61;1371;-88
2021/03/11 05:05:43;346042.00;1.15;597.06;97535.00;0.33;169.32;;;;;11.50;1.00;;;;;;2281632;61;445;-88
2021/03/11 05:13:09;1415938.00;4.72;2485.92;0.00;0.00;0.62;;;;;11.40;1.00;;;;;;2274463;61;1323;-88
2021/03/11 05:15:35;200933.00;0.67;347.53;0.00;0.00;0.62;;;;;11.60;1.00;;;;;;2260109;61;1068;-86
2021/03/11 05:18:02;141522.00;0.47;245.19;0.00;0.00;0.62;;;;;12.00;1.00;;;;;;2260296;61;1908;-88
2021/03/11 05:20:30;344414.00;1.15;594.26;46234.00;0.15;80.67;;;;;12.00;1.00;;;;;;2260379;61;962;-88
2021/03/11 05:22:58;297662.00;0.99;513.90;0.00;0.00;0.62;;;;;11.90;1.00;;;;;;2260160;61;1634;-88
2021/03/11 05:27:55;562956.00;1.88;970.30;0.00;0.00;0.62;;;;;11.80;1.00;;;;;;2278600;61;1333;-88
2021/03/11 05:30:24;81974.00;0.27;142.45;89741.00;0.30;155.86;;;;;12.00;1.00;;;;;;2264218;61;974;-89
2021/03/11 05:32:52;119512664.00;398.38;69149848.00;70263.00;0.23;122.21;;;;;12.30;1.00;;;;;;2259963;61;1372;-88
2021/03/11 05:37:49;1231170.00;4.10;2146.68;67676.00;0.23;117.74;;;;;11.70;1.00;;;;;;2274721;61;1966;-90
2021/03/11 05:40:17;429248.00;1.43;740.09;105400.00;0.35;182.89;;;;;11.70;1.00;;;;;;2260121;61;946;-88
2021/03/11 05:47:53;1458141.00;4.86;2564.60;79727.00;0.27;138.57;;;;;11.80;1.00;;;;;;2278319;61;1397;-88
2021/03/11 05:52:54;982392.00;3.27;1701.31;78268.00;0.26;136.05;;;;;11.50;1.00;;;;;;2286170;61;1345;-88
2021/03/11 05:55:22;388378.00;1.29;669.83;78152.00;0.26;135.85;;;;;11.80;1.00;;;;;;2272879;61;831;-86
2021/03/11 05:57:50;754867.00;2.52;1302.52;81819.00;0.27;142.18;;;;;12.00;1.00;;;;;;2264020;61;1993;-87
2021/03/11 06:00:19;955591.00;3.19;1653.97;136462.00;0.45;236.47;;;;;12.10;1.00;;;;;;2264059;61;1204;-85
2021/03/11 06:02:49;743109.00;2.48;1282.08;72739.00;0.24;126.49;;;;;12.10;1.00;;;;;;2263931;61;1776;-87
2021/03/11 06:05:16;120888672.00;402.96;71568184.00;193425.00;0.64;334.61;;;;;12.10;1.00;;;;;;2264177;61;1002;-88
2021/03/11 06:10:11;1261200.00;4.20;2201.27;109181.00;0.36;189.42;;;;;12.10;1.00;;;;;;2275149;61;1300;-88
2021/03/11 06:17:45;1978251.00;6.59;3579.76;116982.00;0.39;202.88;;;;;11.80;1.00;;;;;;2278714;61;1866;-88
2021/03/11 06:30:31;870978.00;2.90;1505.20;9060.00;0.03;16.32;;;;;11.90;1.00;;;;;;2278915;61;1318;-88
2021/03/11 06:40:24;1637990.00;5.46;2905.57;0.00;0.00;0.62;;;;;11.90;1.00;;;;;;2286782;61;1020;-90
2021/03/11 07:08:50;1877570.00;6.26;3375.89;89858.00;0.30;156.06;;;;;11.80;1.00;;;;;;2503547;40;2004;31
2021/03/11 09:10:41;1700990.00;5.67;3027.35;0.00;0.00;0.62;;;;;15.10;1.00;;;;;;2279009;61;1295;-89
2021/03/11 09:13:13;420387.00;1.40;724.86;0.00;0.00;0.62;;;;;14.90;1.00;;;;;;2268831;61;1310;-89
2021/03/11 09:45:40;1772284.00;5.91;3166.75;22989.00;0.08;40.45;;;;;16.10;1.00;;;;;;2286131;60;1405;-89
2021/03/11 09:57:58;1568146.00;5.23;2772.02;91626.00;0.31;159.12;;;;;16.20;1.00;;;;;;2282009;60;1972;-89
2021/03/11 10:45:03;1073660.00;3.58;1863.38;0.00;0.00;0.62;;;;;16.90;1.00;;;;;;2282297;60;1385;-88
2021/03/11 10:49:58;1114395.00;3.71;1936.19;7445.00;0.02;13.52;;;;;17.50;1.00;;;;;;2283103;61;1322;-89
2021/03/11 10:57:22;1470863.00;4.90;2588.41;36629.00;0.12;64.06;;;;;17.40;1.00;;;;;;2282403;60;1389;-89
2021/03/11 11:07:23;984481.00;3.28;1705.01;0.00;0.00;0.62;;;;;17.40;1.00;;;;;;2282825;61;1314;-89
2021/03/11 11:09:50;344062.00;1.15;593.66;85286.00;0.28;148.17;;;;;17.50;1.00;;;;;;2272478;61;813;-88
2021/03/11 11:12:18;278101.00;0.93;480.27;0.00;0.00;0.62;;;;;17.40;1.00;;;;;;2261683;61;1443;-89
2021/03/11 11:17:17;891478.00;2.97;1541.16;0.00;0.00;0.62;;;;;17.60;1.00;;;;;;2282836;61;1187;-89
2021/03/11 11:57:03;119148016.00;397.16;68518256.00;117898016.00;392.99;66382396.00;;;;;15.50;1.00;;;;;;2278262;61;1389;-87
2021/03/11 12:04:26;416758.00;1.39;718.62;42456.00;0.14;74.14;;;;;15.10;1.00;;;;;;2282419;61;1412;-88
2021/03/11 12:06:53;422230.00;1.41;728.02;73876.00;0.25;128.46;;;;;15.10;1.00;;;;;;2269996;61;967;-87
2021/03/11 12:09:20;595303.00;1.98;1026.11;135466.00;0.45;234.75;;;;;15.40;1.00;;;;;;2280364;61;898;-89
2021/03/11 12:47:06;1151648.00;3.84;2003.04;0.00;0.00;0.62;;;;;15.60;1.00;;;;;;2275260;61;1028;-90
2021/03/11 12:52:00;1273890.00;4.25;2224.40;0.00;0.00;0.62;;;;;15.80;1.00;;;;;;2278908;61;1405;-89
2021/03/11 12:56:54;946464.00;3.15;1637.88;0.00;0.00;0.62;;;;;15.90;1.00;;;;;;2274977;61;1335;-90
2021/03/11 13:06:54;1145253.00;3.82;1991.54;0.00;0.00;0.62;;;;;15.70;1.00;;;;;;2274803;61;1006;-91
2021/03/11 13:11:48;1087655.00;3.63;1888.36;0.00;0.00;0.62;;;;;16.00;1.00;;;;;;2282921;61;1326;-90
2021/03/11 13:14:15;143967.00;0.48;249.41;0.00;0.00;0.62;;;;;15.80;1.00;;;;;;2268885;61;811;-88
2021/03/11 13:19:09;1711453.00;5.70;3047.70;2680.00;0.01;5.27;;;;;15.70;1.00;;;;;;2278932;61;1871;-90
2021/03/11 13:36:40;1591295.00;5.30;2816.11;33030.00;0.11;57.83;;;;;15.30;1.00;;;;;;2275298;61;1153;-88
2021/03/11 13:41:36;1189672.00;3.97;2071.56;25731.00;0.09;45.19;;;;;15.50;1.00;;;;;;2275313;61;1335;-90
2021/03/11 13:49:11;1420315.00;4.73;2494.05;0.00;0.00;0.62;;;;;15.40;1.00;;;;;;2274287;61;1382;-88
2021/03/11 13:56:38;1336616.00;4.46;2339.28;0.00;0.00;0.62;;;;;15.70;1.00;;;;;;2270839;61;1008;-89
2021/03/11 14:01:35;953775.00;3.18;1650.77;56599.00;0.19;98.60;;;;;15.80;1.00;;;;;;2274889;61;1323;-90
2021/03/11 14:14:14;1131888.00;3.77;1967.55;0.00;0.00;0.62;;;;;15.70;1.00;;;;;;2114176;40;2345;-88
2021/03/11 14:26:44;1784124.00;5.95;3190.07;90711.00;0.30;157.54;;;;;16.50;1.00;;;;;;2499402;40;2119;31
2021/03/11 14:56:35;1760152.00;5.87;3142.91;54128.00;0.18;94.32;;;;;16.00;1.00;;;;;;2278454;61;1011;-88
2021/03/11 14:59:01;394478.00;1.31;680.31;28681.00;0.10;50.30;;;;;16.20;1.00;;;;;;2273347;61;1919;-89
2021/03/11 15:44:05;1075648.00;3.59;1866.93;0.00;0.00;0.62;;;;;14.70;1.00;;;;;;2274097;61;1385;-90
2021/03/11 15:46:32;152594.00;0.51;264.28;0.00;0.00;0.62;;;;;14.90;1.00;;;;;;2263755;61;974;-88
2021/03/11 16:04:08;227836.00;0.76;393.83;0.00;0.00;0.62;;;;;14.20;1.00;;;;;;2274732;61;1251;-88
2021/03/11 16:06:35;50823.00;0.17;88.61;0.00;0.00;0.62;;;;;14.30;1.00;;;;;;2272938;61;971;-88
2021/03/11 16:09:01;124280.00;0.41;215.46;0.00;0.00;0.62;;;;;14.20;1.00;;;;;;2273085;61;1025;-88
2021/03/11 16:11:28;177065.00;0.59;306.44;2442.00;0.01;4.85;;;;;14.10;1.00;;;;;;2273547;61;1328;-88
2021/03/11 16:13:54;7464.00;0.02;13.56;0.00;0.00;0.62;;;;;13.90;1.00;;;;;;2277004;61;932;-87
2021/03/11 16:16:21;103737.00;0.35;180.02;0.00;0.00;0.62;;;;;14.10;1.00;;;;;;2268457;61;928;-88
2021/03/11 16:18:48;238.00;0.00;1.03;0.00;0.00;0.62;;;;;14.00;1.00;;;;;;2260335;61;1996;-88
2021/03/11 16:21:15;214645.00;0.72;371.13;16241.00;0.05;28.76;;;;;13.40;1.00;;;;;;2260377;61;1305;-88
2021/03/11 16:23:42;134976.00;0.45;233.91;0.00;0.00;0.62;;;;;12.90;1.00;;;;;;2256378;61;1093;-87
2021/03/11 16:26:09;0.00;0.00;0.62;0.00;0.00;0.62;;;;;13.20;1.00;;;;;;2249625;61;1057;-88
2021/03/11 16:28:36;117914.00;0.39;204.48;39455.00;0.13;68.95;;;;;13.40;1.00;;;;;;2256407;61;1042;-88
2021/03/11 16:31:03;31105.00;0.10;54.50;0.00;0.00;0.62;;;;;13.40;1.00;;;;;;2249709;61;972;-88
2021/03/11 16:33:30;40026.00;0.13;69.93;0.00;0.00;0.62;;;;;13.40;1.00;;;;;;2250752;61;1404;-89
2021/03/11 16:35:57;7064.00;0.02;12.86;0.00;0.00;0.62;;;;;13.20;1.00;;;;;;2258213;61;961;-88
2021/03/11 16:38:25;66112.00;0.22;115.04;0.00;0.00;0.62;;;;;13.10;1.00;;;;;;2261729;61;2014;-88
2021/03/11 16:40:52;0.00;0.00;0.62;0.00;0.00;0.62;;;;;13.20;1.00;;;;;;2262832;61;1046;-87
2021/03/11 16:43:18;16834.00;0.06;29.79;0.00;0.00;0.62;;;;;13.20;1.00;;;;;;2276945;61;1367;-87
2021/03/11 16:45:45;0.00;0.00;0.62;0.00;0.00;0.62;;;;;13.40;1.00;;;;;;2268289;61;961;-87
2021/03/11 16:48:12;106306.00;0.35;184.46;0.00;0.00;0.62;;;;;13.30;1.00;;;;;;2258436;61;993;-88
2021/03/11 16:50:43;0.00;0.00;0.62;0.00;0.00;0.62;;;;;13.00;1.00;;;;;;2256253;61;1066;-88
2021/03/11 16:53:11;60591.00;0.20;105.50;0.00;0.00;0.62;;;;;12.80;1.00;;;;;;2252241;61;1379;-88
2021/03/11 16:55:38;347477.00;1.16;599.52;39568.00;0.13;69.14;;;;;12.90;1.00;;;;;;2252303;61;1032;-88
2021/03/11 16:58:05;117582.00;0.39;203.91;0.00;0.00;0.62;;;;;13.00;1.00;;;;;;2244314;62;944;-88
2021/03/11 17:00:31;0.00;0.00;0.62;0.00;0.00;0.62;;;;;13.30;1.00;;;;;;2244215;62;2023;-89
2021/03/11 17:02:58;33085.00;0.11;57.92;0.00;0.00;0.62;;;;;13.30;1.00;;;;;;2244159;62;1392;-88
2021/03/11 17:05:25;140444.00;0.47;243.34;0.00;0.00;0.62;;;;;13.20;1.00;;;;;;2237574;62;969;-88
2021/03/11 17:07:52;148307.00;0.49;256.89;0.00;0.00;0.62;;;;;12.90;1.00;;;;;;2245313;61;1007;-88
2021/03/11 17:10:19;74757.00;0.25;129.98;0.00;0.00;0.62;;;;;12.80;1.00;;;;;;2252721;61;961;-89
2021/03/11 17:12:47;197696.00;0.66;341.96;82652.00;0.28;143.62;;;;;12.70;1.00;;;;;;2249774;61;1396;-89
2021/03/11 17:15:14;212934.00;0.71;368.18;81679.00;0.27;141.94;;;;;12.80;1.00;;;;;;2257272;61;1024;-88
2021/03/11 17:17:41;69268.00;0.23;120.50;0.00;0.00;0.62;;;;;13.00;1.00;;;;;;2260951;61;1010;-88
2021/03/11 17:20:10;24406.00;0.08;42.90;0.00;0.00;0.62;;;;;13.20;1.00;;;;;;2255243;61;1920;-87
2021/03/11 17:25:05;153098.00;0.51;265.15;0.00;0.00;0.62;;;;;13.20;1.00;;;;;;2274038;61;1391;-87
2021/03/11 17:27:32;192717.00;0.64;333.39;38941.00;0.13;68.06;;;;;13.00;1.00;;;;;;2272569;61;1118;-88
2021/03/11 17:29:59;53309.00;0.18;92.91;0.00;0.00;0.62;;;;;12.80;1.00;;;;;;2262223;61;997;-86
2021/03/11 17:32:28;253491.00;0.84;437.95;98747.00;0.33;171.41;;;;;12.70;1.00;;;;;;2273806;61;1459;-86
2021/03/11 17:34:55;159671.00;0.53;276.47;0.00;0.00;0.62;;;;;12.60;1.00;;;;;;2276662;61;926;-88
2021/03/11 17:37:21;231094.00;0.77;399.43;0.00;0.00;0.62;;;;;12.30;1.00;;;;;;2276577;61;1171;-87
2021/03/11 17:39:48;227923.00;0.76;393.98;0.00;0.00;0.62;;;;;12.40;1.00;;;;;;2276622;61;2002;-87
2021/03/11 17:42:14;104191.00;0.35;180.81;0.00;0.00;0.62;;;;;12.30;1.00;;;;;;2271813;61;1286;-87
2021/03/11 17:44:44;275713.00;0.92;476.17;15843.00;0.05;28.07;;;;;12.50;1.00;;;;;;2268590;61;1097;-88
2021/03/11 17:47:11;250363.00;0.83;432.58;39963.00;0.13;69.82;;;;;12.50;1.00;;;;;;2260004;61;1129;-87
2021/03/11 17:49:38;178332.00;0.59;308.62;0.00;0.00;0.62;;;;;12.60;1.00;;;;;;2260073;61;1026;-87
2021/03/11 17:52:17;104961.00;0.35;182.13;0.00;0.00;0.62;;;;;12.70;1.00;;;;;;2247611;61;1425;-87
2021/03/11 17:54:51;342724.00;1.14;591.36;71052.00;0.24;123.58;;;;;12.70;1.00;;;;;;2243919;61;973;-86
2021/03/11 17:57:25;443763.00;1.48;765.05;73906.00;0.25;128.51;;;;;12.60;1.00;;;;;;2240316;62;1073;-85
2021/03/11 18:00:18;500300.00;1.67;862.34;75411.00;0.25;131.11;;;;;12.80;1.00;;;;;;2239825;62;1932;-87
2021/03/11 18:02:55;461438.00;1.54;795.46;0.00;0.00;0.62;;;;;13.10;1.00;;;;;;2239928;62;1363;-87
2021/03/11 18:05:22;143302.00;0.48;248.26;0.00;0.00;0.62;;;;;13.00;1.00;;;;;;2246935;61;1034;-87
2021/03/11 18:08:04;319893.00;1.07;552.11;65628.00;0.22;114.20;;;;;12.70;1.00;;;;;;2247851;61;1007;-86
2021/03/11 18:10:31;264252.00;0.88;456.46;80227.00;0.27;139.43;;;;;12.60;1.00;;;;;;2245455;62;1037;-87
2021/03/11 18:13:06;337115.00;1.12;581.72;0.00;0.00;0.62;;;;;12.40;1.00;;;;;;2246247;62;1360;-86
2021/03/11 18:15:33;146556.00;0.49;253.87;0.00;0.00;0.62;;;;;12.30;1.00;;;;;;2251874;61;966;-86
2021/03/11 18:18:08;316398.00;1.05;546.11;0.00;0.00;0.62;;;;;12.40;1.00;;;;;;2252866;61;1018;-86
2021/03/11 18:20:35;190467.00;0.63;329.51;0.00;0.00;0.62;;;;;12.60;1.00;;;;;;2255691;61;2026;-86
2021/03/11 18:23:03;349976.00;1.17;603.82;14614.00;0.05;25.94;;;;;12.70;1.00;;;;;;2255820;61;1285;-87
2021/03/11 18:25:31;36147.00;0.12;63.22;0.00;0.00;0.62;;;;;12.50;1.00;;;;;;2257172;61;1156;-87
2021/03/11 18:28:03;257495.00;0.86;444.84;0.00;0.00;0.62;;;;;12.60;1.00;;;;;;2257621;61;1666;-88
2021/03/11 18:30:37;274210.00;0.91;473.58;0.00;0.00;0.62;;;;;12.50;1.00;;;;;;2251704;61;1073;-89
2021/03/11 18:33:12;288698.00;0.96;498.49;0.00;0.00;0.62;;;;;12.20;1.00;;;;;;2247581;62;1455;-88
2021/03/11 18:35:39;254414.00;0.85;439.54;13946.00;0.05;24.78;;;;;12.20;1.00;;;;;;2247727;61;1059;-87
2021/03/11 18:38:05;150411.00;0.50;260.52;0.00;0.00;0.62;;;;;12.20;1.00;;;;;;2253771;61;1019;-86
2021/03/11 18:40:32;226795.00;0.76;392.03;0.00;0.00;0.62;;;;;12.20;1.00;;;;;;2267815;61;1930;-87
2021/03/11 18:43:02;61464.00;0.20;107.01;0.00;0.00;0.62;;;;;12.10;1.00;;;;;;2255514;61;1285;-86
2021/03/11 18:45:28;199417.00;0.66;344.92;0.00;0.00;0.62;;;;;12.30;1.00;;;;;;2255708;61;1029;-87
2021/03/11 18:47:59;242423.00;0.81;418.92;0.00;0.00;0.62;;;;;12.20;1.00;;;;;;2247680;61;1135;-88
2021/03/11 18:50:29;120382.00;0.40;208.74;0.00;0.00;0.62;;;;;12.20;1.00;;;;;;2249240;61;1014;-87
2021/03/11 18:53:00;173103.00;0.58;299.61;0.00;0.00;0.62;;;;;12.10;1.00;;;;;;2255596;61;1391;-88
2021/03/11 18:55:33;164060.00;0.55;284.03;0.00;0.00;0.62;;;;;12.10;1.00;;;;;;2255802;61;954;-89
2021/03/11 18:58:03;215147.00;0.72;371.99;0.00;0.00;0.62;;;;;12.00;1.00;;;;;;2255789;61;1157;-89
2021/03/11 19:00:47;395652.00;1.32;682.33;56880.00;0.19;99.08;;;;;12.00;1.00;;;;;;2255729;61;2002;-89
2021/03/11 19:06:05;315289.00;1.05;544.20;63603.00;0.21;110.70;;;;;11.60;1.00;;;;;;2248032;61;1046;-88
2021/03/11 19:08:37;595831.00;1.99;1027.02;84308.00;0.28;146.48;;;;;11.50;1.00;;;;;;2259239;61;1064;-90
2021/03/11 19:11:07;1354698.00;4.52;2372.56;78075.00;0.26;135.71;;;;;11.40;1.00;;;;;;2247596;61;963;-88
2021/03/11 19:13:41;1108541.00;3.70;1925.70;167143.00;0.56;289.35;;;;;11.20;1.00;;;;;;2243685;61;1363;-88
2021/03/11 19:16:14;929298.00;3.10;1607.64;16485.00;0.05;29.18;;;;;11.40;1.00;;;;;;2235184;62;1004;-87
2021/03/11 19:18:41;689310.00;2.30;1188.71;48279.00;0.16;84.21;;;;;11.60;1.00;;;;;;2235697;62;2008;-89
2021/03/11 19:24:16;151893.00;0.51;263.07;0.00;0.00;0.62;;;;;11.90;1.00;;;;;;2243466;61;969;-88
2021/03/11 19:26:54;424624.00;1.42;732.14;37991.00;0.13;66.41;;;;;12.10;1.00;;;;;;2243496;61;1177;-87
2021/03/11 19:29:34;396635.00;1.32;684.02;71718.00;0.24;124.73;;;;;12.30;1.00;;;;;;2239200;62;973;-88
2021/03/11 19:32:17;210596.00;0.70;364.16;0.00;0.00;0.62;;;;;12.70;1.00;;;;;;2240228;62;1335;-87
2021/03/11 19:34:52;241069.00;0.80;416.59;0.00;0.00;0.62;;;;;12.80;1.00;;;;;;2240242;62;1146;-88
2021/03/11 19:37:33;;;;;;;;;;;;;;;;;;;;;
2021/03/11 19:40:12;391782.00;1.31;675.68;0.00;0.00;0.62;;;;;13.30;1.00;;;;;;2242448;61;1998;-89
2021/03/11 19:42:42;385966.00;1.29;665.68;82768.00;0.28;143.82;;;;;13.00;1.00;;;;;;2256133;61;1294;-88
2021/03/11 19:45:14;426654.00;1.42;735.63;87476.00;0.29;151.95;;;;;12.60;1.00;;;;;;2244160;62;1083;-89
2021/03/11 19:47:43;396620.00;1.32;683.99;86901.00;0.29;150.96;;;;;12.50;1.00;;;;;;2240119;62;1005;-88
2021/03/11 19:50:27;449093.00;1.50;774.22;75229.00;0.25;130.80;;;;;12.60;1.00;;;;;;2244524;62;1201;-88
2021/03/11 19:53:12;957508.00;3.19;1657.36;109597.00;0.37;190.13;;;;;12.70;1.00;;;;;;2247787;61;1386;-89
2021/03/11 19:55:42;878033.00;2.93;1517.57;87228.00;0.29;151.52;;;;;12.90;1.00;;;;;;2253868;61;1161;-89
2021/03/11 19:58:19;751437.00;2.50;1296.56;27733.00;0.09;48.66;;;;;12.70;1.00;;;;;;2252033;61;1042;-89
2021/03/11 20:00:50;642239.00;2.14;1107.21;21372.00;0.07;37.65;;;;;12.60;1.00;;;;;;2252053;61;2031;-88
2021/03/11 20:03:17;269582.00;0.90;465.63;0.00;0.00;0.62;;;;;12.50;1.00;;;;;;2245798;62;1662;-88
2021/03/11 20:05:45;396238.00;1.32;683.34;0.00;0.00;0.62;;;;;12.30;1.00;;;;;;2244126;61;1035;-88
2021/03/11 20:08:18;356566.00;1.19;615.15;0.00;0.00;0.62;;;;;12.20;1.00;;;;;;2247615;62;997;-87
2021/03/11 20:10:45;179448.00;0.60;310.54;0.00;0.00;0.62;;;;;12.60;1.00;;;;;;2246233;62;1105;-87
2021/03/11 20:13:12;167250.00;0.56;289.53;35206.00;0.12;61.59;;;;;12.30;1.00;;;;;;2246000;62;1264;-87
2021/03/11 20:15:39;233340.00;0.78;403.29;40237.00;0.13;70.30;;;;;12.30;1.00;;;;;;2239975;62;1116;-87
2021/03/11 20:18:06;144431.00;0.48;250.21;0.00;0.00;0.62;;;;;12.30;1.00;;;;;;2242443;62;1169;-87
2021/03/11 20:20:34;255172.00;0.85;440.85;0.00;0.00;0.62;;;;;12.80;1.00;;;;;;2238270;62;1924;-87
2021/03/11 20:23:01;197275.00;0.66;341.23;0.00;0.00;0.62;;;;;13.00;1.00;;;;;;2236212;62;1407;-86
2021/03/11 20:25:29;100101.00;0.33;173.75;0.00;0.00;0.62;;;;;12.60;1.00;;;;;;2235946;62;1201;-86
2021/03/11 20:27:56;159361.00;0.53;275.94;0.00;0.00;0.62;;;;;11.70;1.00;;;;;;2236373;62;1161;-87
2021/03/11 20:30:25;115736.00;0.39;200.73;0.00;0.00;0.62;;;;;10.90;1.00;;;;;;2239213;62;1706;-86
2021/03/11 20:32:52;132039.00;0.44;228.85;0.00;0.00;0.62;;;;;10.80;1.00;;;;;;2243208;61;1374;-87
2021/03/11 20:35:21;152765.00;0.51;264.57;0.00;0.00;0.62;;;;;10.80;1.00;;;;;;2248378;61;1306;-86
2021/03/11 20:37:50;152090.00;0.51;263.41;0.00;0.00;0.62;;;;;10.90;1.00;;;;;;2255238;61;1228;-86
2021/03/11 20:40:17;169255.00;0.56;292.98;0.00;0.00;0.62;;;;;11.00;1.00;;;;;;2254967;61;1923;-86
2021/03/11 20:42:47;115776.00;0.39;200.80;0.00;0.00;0.62;;;;;11.10;1.00;;;;;;2258737;61;1371;-86
2021/03/11 20:45:16;138204.00;0.46;239.47;0.00;0.00;0.62;;;;;11.10;1.00;;;;;;2250381;61;994;-86
2021/03/11 20:47:44;187644.00;0.63;324.65;9768.00;0.03;17.55;;;;;11.20;1.00;;;;;;2243284;62;1115;-87
2021/03/11 20:50:13;257557.00;0.86;444.95;0.00;0.00;0.62;;;;;11.40;1.00;;;;;;2243576;62;1117;-87
2021/03/11 20:52:40;168675.00;0.56;291.98;0.00;0.00;0.62;;;;;11.10;1.00;;;;;;2243810;62;1390;-87
2021/03/11 20:55:09;139088.00;0.46;241.00;0.00;0.00;0.62;;;;;10.70;1.00;;;;;;2241976;61;1138;-86
2021/03/11 20:57:40;125941.00;0.42;218.33;0.00;0.00;0.62;;;;;10.50;1.00;;;;;;2251574;61;1093;-86
2021/03/11 21:00:11;326774.00;1.09;563.94;0.00;0.00;0.62;;;;;10.10;1.00;;;;;;2253246;61;1997;-87
2021/03/11 21:02:39;389712.00;1.30;672.12;21039.00;0.07;37.07;;;;;10.30;1.00;;;;;;2259336;61;1374;-87
2021/03/11 21:05:07;333559.00;1.11;575.60;18739.00;0.06;33.09;;;;;10.50;1.00;;;;;;2260854;61;1073;-86
2021/03/11 21:07:34;372509.00;1.24;642.55;0.00;0.00;0.62;;;;;10.50;1.00;;;;;;2266695;61;1183;-87
2021/03/11 21:10:00;297260.00;0.99;513.21;0.00;0.00;0.62;;;;;10.50;1.00;;;;;;2272458;61;1633;-86
2021/03/11 21:12:27;378839.00;1.26;653.43;0.00;0.00;0.62;;;;;10.80;1.00;;;;;;2275563;61;1357;-86
2021/03/11 21:14:54;376158.00;1.25;648.82;36449.00;0.12;63.74;;;;;10.60;1.00;;;;;;2275796;61;1627;-86
2021/03/11 21:17:21;234873.00;0.78;405.93;0.00;0.00;0.62;;;;;10.70;1.00;;;;;;2275745;61;1044;-86
2021/03/11 21:19:48;478871.00;1.60;825.45;0.00;0.00;0.62;;;;;10.60;1.00;;;;;;2275966;61;1980;-86
2021/03/11 21:22:15;275191.00;0.92;475.27;0.00;0.00;0.62;;;;;10.20;1.00;;;;;;2276105;61;1285;-87
2021/03/11 21:24:42;251828.00;0.84;435.09;0.00;0.00;0.62;;;;;10.30;1.00;;;;;;2275856;61;2085;-86
2021/03/11 21:27:09;349660.00;1.17;603.28;63182.00;0.21;109.98;;;;;10.10;1.00;;;;;;2275926;61;1699;-86